CDT,Max TemperatureF,Mean TemperatureF,Min TemperatureF,Max Dew PointF,MeanDew PointF,Min DewpointF,Max Humidity, Mean Humidity, Min Humidity, Max Sea Level PressureIn, Mean Sea Level PressureIn, Min Sea Level PressureIn, Max VisibilityMiles, Mean VisibilityMiles, Min VisibilityMiles, Max Wind SpeedMPH, Mean Wind SpeedMPH, Max Gust SpeedMPH,PrecipitationIn, CloudCover, Events, WindDirDegrees
2013-9-1,84,76,68,70,68,65,97,79,61,29.93,29.86,29.81,10,9,1,21,8,31,0.84,3,Rain-Thunderstorm,237
2013-9-2,88,80,71,72,70,69,93,74,55,29.93,29.88,29.82,10,10,8,13,4,16,T,3,Thunderstorm,250
2013-9-3,84,75,65,69,63,58,93,67,40,30.06,29.98,29.89,10,10,9,7,3,,0.00,1,,27
2013-9-4,83,71,58,63,59,57,100,72,43,30.16,30.11,30.06,10,10,8,9,1,15,0.00,0,,54
2013-9-5,84,71,58,65,60,57,97,72,47,30.20,30.16,30.13,10,7,0,9,2,13,0.00,0,Fog,57
2013-9-6,86,73,60,67,63,60,100,73,45,30.19,30.15,30.08,10,4,0,10,2,13,0.00,0,Fog,64
2013-9-7,88,75,61,68,63,60,100,73,46,30.11,30.07,29.98,10,4,0,10,2,14,0.00,0,Fog,270
2013-9-8,88,78,67,73,68,65,100,73,46,30.01,29.98,29.94,10,9,2,8,1,12,T,1,Rain,340
2013-9-9,91,81,70,71,69,67,97,72,47,30.06,30.01,29.98,10,8,4,12,4,15,0.00,1,,176
2013-9-10,92,81,70,72,70,68,100,76,52,30.17,30.13,30.06,10,9,5,18,5,24,T,1,Rain-Thunderstorm,204
2013-9-11,88,78,68,72,69,66,100,80,59,30.19,30.15,30.08,10,6,0,18,3,23,1.86,2,Fog-Rain-Thunderstorm,212
2013-9-12,88,77,66,73,69,66,97,76,55,30.07,30.00,29.92,10,6,0,23,4,30,0.80,2,Fog-Rain-Thunderstorm,261
2013-9-13,75,64,53,65,54,47,93,67,41,30.07,30.01,29.95,10,9,2,16,6,37,0.00,1,,14
2013-9-14,72,60,48,52,49,45,86,67,47,30.14,30.09,30.06,10,10,10,16,5,18,0.00,0,,61
2013-9-15,81,66,50,60,55,48,96,72,45,30.13,30.09,30.06,10,10,7,15,3,20,0.00,0,,228
2013-9-16,76,67,58,64,61,58,93,80,66,30.20,30.16,30.11,10,10,9,10,3,15,0.00,7,,38
2013-9-17,81,70,58,62,60,56,97,74,51,30.23,30.17,30.11,10,9,7,10,4,14,0.00,1,,67
2013-9-18,81,72,63,67,64,60,93,78,62,30.17,30.12,30.07,10,10,7,14,5,17,0.00,4,,198
2013-9-19,86,76,65,68,66,63,93,72,51,30.13,30.07,30.00,10,10,8,15,5,20,0.00,0,,203
2013-9-20,85,76,67,71,67,64,93,74,55,30.01,29.91,29.80,10,8,1,16,7,29,0.86,4,Rain,210
2013-9-21,73,64,54,68,59,50,93,69,44,29.89,29.82,29.75,10,8,2,16,5,29,0.62,5,Rain,329
2013-9-22,74,62,50,53,50,48,96,69,41,29.98,29.94,29.89,10,10,8,12,4,16,0.00,0,,37
2013-9-23,77,63,48,58,53,46,93,70,46,30.04,29.99,29.96,10,10,10,12,4,16,0.00,0,,59
2013-9-24,80,67,53,64,57,52,100,73,45,30.03,29.96,29.86,10,7,0,12,4,16,0.00,2,Fog,133
2013-9-25,77,69,60,65,63,62,93,79,64,29.90,29.86,29.83,10,9,1,8,1,12,T,5,Rain,115
2013-9-26,81,68,55,64,59,53,100,70,39,30.05,29.97,29.89,10,4,0,9,2,14,0.00,2,Fog,48
2013-9-27,82,67,51,61,54,49,100,69,37,30.15,30.10,30.05,10,6,0,9,2,14,0.00,0,Fog,98
2013-9-28,81,68,55,60,56,51,100,70,39,30.18,30.12,30.07,10,9,3,18,4,25,0.00,1,,213
2013-9-29,76,67,57,63,59,54,100,77,53,30.11,30.06,30.01,10,9,5,16,4,21,0.11,4,Rain,201
2013-9-30,76,68,60,61,60,58,97,78,58,30.04,30.01,29.97,10,10,8,15,3,18,T,6,,224